Home > Products > Valid Products > TAF

000
FTUS46 KSTO 272300
TAFRDD
TAF
KRDD 272328Z 2800/2824 VRB05KT P6SM SKC
     FM282100 18008KT P6SM SKC=



000
FTUS46 KSTO 272300
TAFMHR
TAF
KMHR 272328Z 2800/2824 VRB05KT P6SM FEW250
     FM280500 15006KT P6SM FEW250
     FM282100 21007KT P6SM FEW250=



000
FTUS46 KSTO 272300
TAFRDD
TAF
KRDD 272328Z 2800/2824 VRB05KT P6SM SKC
     FM282100 18008KT P6SM SKC=



000
FTUS46 KSTO 272300
TAFSAC
TAF
KSAC 272328Z 2800/2824 VRB05KT P6SM FEW250
     FM280800 18006KT P6SM SCT250
     FM282000 22008KT P6SM FEW250=



000
FTUS46 KSTO 272300
TAFSMF
TAF
KSMF 272328Z 2800/2824 VRB05KT P6SM FEW250
     FM280400 16007KT P6SM SCT250
     FM282100 20010KT P6SM FEW250=



000
FTUS46 KSTO 272300
TAFRBL
TAF
KRBL 272328Z 2800/2824 35010KT P6SM SKC
     FM280500 34006KT P6SM SKC
     FM282100 16010KT P6SM SKC=



000
FTUS46 KSTO 272300
TAFSCK
TAF
KSCK 272328Z 2800/2824 VRB05KT P6SM FEW250
     FM280200 30006KT P6SM FEW250
     FM282000 28008KT P6SM SKC=



000
FTUS46 KSTO 272300
TAFSAC
TAF
KSAC 272328Z 2800/2824 VRB05KT P6SM FEW250
     FM280800 18006KT P6SM SCT250
     FM282000 22008KT P6SM FEW250=



000
FTUS46 KSTO 272300
TAFSCK
TAF
KSCK 272328Z 2800/2824 VRB05KT P6SM FEW250
     FM280200 30006KT P6SM FEW250
     FM282000 28008KT P6SM SKC=



000
FTUS46 KSTO 272300
TAFRBL
TAF
KRBL 272328Z 2800/2824 35010KT P6SM SKC
     FM280500 34006KT P6SM SKC
     FM282100 16010KT P6SM SKC=



000
FTUS46 KSTO 272300
TAFMHR
TAF
KMHR 272328Z 2800/2824 VRB05KT P6SM FEW250
     FM280500 15006KT P6SM FEW250
     FM282100 21007KT P6SM FEW250=



000
FTUS46 KSTO 272300
TAFSMF
TAF
KSMF 272328Z 2800/2824 VRB05KT P6SM FEW250
     FM280400 16007KT P6SM SCT250
     FM282100 20010KT P6SM FEW250=



000
FTUS46 KSTO 271900 AAA
TAFRBL
TAF AMD
KRBL 271900Z 2719/2818 35010KT P6SM FEW250
     FM272100 32008KT P6SM SKC
     FM280500 32011G17KT P6SM SKC=



000
FTUS46 KSTO 271900 AAA
TAFRBL
TAF AMD
KRBL 271900Z 2719/2818 35010KT P6SM FEW250
     FM272100 32008KT P6SM SKC
     FM280500 32011G17KT P6SM SKC=



000
FTUS46 KSTO 271700 RRA
TAFMHR
TAF
KMHR 271741Z 2718/2818 32006KT P6SM FEW250
     FM280300 20014G22KT P6SM SKC=



000
FTUS46 KSTO 271700 RRA
TAFRDD
TAF
KRDD 271741Z 2718/2818 36014G22KT P6SM FEW250
     FM272200 34006KT P6SM SKC
     FM280400 34011G17KT P6SM SKC=



000
FTUS46 KSTO 271700 RRA
TAFRDD
TAF
KRDD 271741Z 2718/2818 36014G22KT P6SM FEW250
     FM272200 34006KT P6SM SKC
     FM280400 34011G17KT P6SM SKC=



000
FTUS46 KSTO 271700 RRA
TAFSCK
TAF
KSCK 271741Z 2718/2818 VRB05KT P6SM FEW250
     FM280100 31015G22KT P6SM SKC=



000
FTUS46 KSTO 271700 RRA
TAFSAC
TAF
KSAC 271741Z 2718/2818 32007KT P6SM FEW250
     FM280300 20014G22KT P6SM SKC=



000
FTUS46 KSTO 271700 RRA
TAFSMF
TAF
KSMF 271741Z 2718/2818 34010KT P6SM SKC
     FM280300 20012G18KT P6SM SKC=



000
FTUS46 KSTO 271700 RRA
TAFMHR
TAF
KMHR 271741Z 2718/2818 32006KT P6SM FEW250
     FM280300 20014G22KT P6SM SKC=



000
FTUS46 KSTO 271700 RRA
TAFRBL
TAF
KRBL 271741Z 2718/2818 35014G22KT P6SM FEW250
     FM272100 32008KT P6SM SKC
     FM280500 32011G17KT P6SM SKC=



000
FTUS46 KSTO 271700 RRA
TAFSMF
TAF
KSMF 271741Z 2718/2818 34010KT P6SM SKC
     FM280300 20012G18KT P6SM SKC=



000
FTUS46 KSTO 271700 RRA
TAFRBL
TAF
KRBL 271741Z 2718/2818 35014G22KT P6SM FEW250
     FM272100 32008KT P6SM SKC
     FM280500 32011G17KT P6SM SKC=



000
FTUS46 KSTO 271700 RRA
TAFSCK
TAF
KSCK 271741Z 2718/2818 VRB05KT P6SM FEW250
     FM280100 31015G22KT P6SM SKC=



000
FTUS46 KSTO 271700 RRA
TAFSAC
TAF
KSAC 271741Z 2718/2818 32007KT P6SM FEW250
     FM280300 20014G22KT P6SM SKC=



000
FTUS46 KSTO 271100
TAFMHR
TAF
KMHR 271130Z 2712/2812 32007KT P6SM FEW250
     FM280200 VRB05KT P6SM SKC
      AMD NOT SKED=



000
FTUS46 KSTO 271100
TAFRDD
TAF
KRDD 271130Z 2712/2812 35012KT P6SM SCT250
     FM271600 35014G22KT P6SM FEW250
     FM272200 34006KT P6SM SKC=



000
FTUS46 KSTO 271100
TAFSCK
TAF
KSCK 271130Z 2712/2812 27009KT P6SM FEW250=



000
FTUS46 KSTO 271100
TAFRBL
TAF
KRBL 271130Z 2712/2812 32007KT P6SM SCT250
     FM271600 35014G22KT P6SM FEW250
     FM280000 VRB05KT P6SM SKC=



000
FTUS46 KSTO 271100
TAFSMF
TAF
KSMF 271130Z 2712/2812 35007KT P6SM FEW250
     FM271700 34012G18KT P6SM SKC
     FM280100 20008KT P6SM SKC=



000
FTUS46 KSTO 271100
TAFSAC
TAF
KSAC 271130Z 2712/2812 32007KT P6SM FEW250
     FM271700 32012G18KT P6SM SKC
     FM280100 22008KT P6SM SKC=



000
FTUS46 KSTO 270500
TAFSCK
TAF
KSCK 270533Z 2706/2806 27009KT P6SM FEW250
     FM271900 31008KT P6SM SKC=



000
FTUS46 KSTO 270500
TAFSMF
TAF
KSMF 270533Z 2706/2806 33006KT P6SM FEW250
     FM271900 33011KT P6SM SKC
     FM280300 VRB04KT P6SM SKC=



000
FTUS46 KSTO 270500
TAFMHR
TAF
KMHR 270533Z 2706/2806 VRB04KT P6SM SKC
     FM271900 34005KT P6SM SKC
     FM280300 28004KT P6SM SKC
      AMD NOT SKED=



000
FTUS46 KSTO 270500
TAFSAC
TAF
KSAC 270533Z 2706/2806 30005KT P6SM FEW250
     FM271900 34010KT P6SM SKC
     FM280300 23005KT P6SM SKC=



000
FTUS46 KSTO 270500
TAFRDD
TAF
KRDD 270533Z 2706/2806 32006KT P6SM SCT250
      TEMPO 2713/2717 36010KT
     FM280200 VRB04KT P6SM SKC=



000
FTUS46 KSTO 270500
TAFRBL
TAF
KRBL 270533Z 2706/2806 32007KT P6SM SCT250
      TEMPO 2713/2717 36010KT
     FM280200 VRB04KT P6SM SKC=



000
FTUS46 KSTO 262300
TAFSCK
TAF
KSCK 262336Z 2700/2724 33014KT P6SM FEW250
     FM270300 27009KT P6SM FEW250
     FM271900 31008KT P6SM SKC=



000
FTUS46 KSTO 262300
TAFMHR
TAF
KMHR 262336Z 2700/2724 33011KT P6SM FEW250
     FM270500 VRB04KT P6SM SKC
     FM271900 34005KT P6SM SKC
      AMD NOT SKED=



000
FTUS46 KSTO 262300
TAFRBL
TAF
KRBL 262336Z 2700/2724 35011KT P6SM SCT250
     FM270200 32008KT P6SM SCT250=



000
FTUS46 KSTO 262300
TAFRDD
TAF
KRDD 262336Z 2700/2724 36006KT P6SM SCT250
      TEMPO 2712/2716 02010KT=



000
FTUS46 KSTO 262300
TAFSMF
TAF
KSMF 262336Z 2700/2724 34012KT P6SM FEW250
     FM270200 31006KT P6SM FEW250
     FM271900 33009KT P6SM SKC=



000
FTUS46 KSTO 262300
TAFSAC
TAF
KSAC 262336Z 2700/2724 34012KT P6SM FEW250
     FM270200 30005KT P6SM FEW250
     FM271900 35006KT P6SM SKC=



000
FTUS46 KSTO 261700
TAFRBL
TAF
KRBL 261730Z 2618/2718 34010KT P6SM FEW250
     FM262000 35011G17KT P6SM SCT250
     FM270100 34009KT P6SM SKC=



000
FTUS46 KSTO 261700
TAFMHR
TAF
KMHR 261730Z 2618/2718 33005KT P6SM FEW250
     FM262000 32010G18KT P6SM FEW250
     FM270200 30005KT P6SM SKC=



000
FTUS46 KSTO 261700
TAFSMF
TAF
KSMF 261730Z 2618/2718 34007KT P6SM FEW250
     FM262000 34011G17KT P6SM FEW250
     FM270200 31006KT P6SM SKC=



000
FTUS46 KSTO 261700
TAFSAC
TAF
KSAC 261730Z 2618/2718 34008KT P6SM FEW250
     FM262000 33010G17KT P6SM FEW250
     FM270200 30005KT P6SM SKC=



000
FTUS46 KSTO 261700
TAFSCK
TAF
KSCK 261730Z 2618/2718 30010KT P6SM FEW250
     FM262000 31014G22KT P6SM FEW250
     FM270300 29008KT P6SM SKC=



000
FTUS46 KSTO 261700
TAFRDD
TAF
KRDD 261730Z 2618/2718 35008KT P6SM SCT250=



000
FTUS46 KSTO 261700
TAFMHR
TAF
KMHR 261730Z 2618/2718 33005KT P6SM FEW250
     FM262000 32010G18KT P6SM FEW250
     FM270200 30005KT P6SM SKC=



000
FTUS46 KSTO 261700
TAFSAC
TAF
KSAC 261730Z 2618/2718 34008KT P6SM FEW250
     FM262000 33010G17KT P6SM FEW250
     FM270200 30005KT P6SM SKC=



000
FTUS46 KSTO 261700
TAFSCK
TAF
KSCK 261730Z 2618/2718 30010KT P6SM FEW250
     FM262000 31014G22KT P6SM FEW250
     FM270300 29008KT P6SM SKC=



000
FTUS46 KSTO 261700
TAFRDD
TAF
KRDD 261730Z 2618/2718 35008KT P6SM SCT250=



000
FTUS46 KSTO 261700
TAFRBL
TAF
KRBL 261730Z 2618/2718 34010KT P6SM FEW250
     FM262000 35011G17KT P6SM SCT250
     FM270100 34009KT P6SM SKC=



000
FTUS46 KSTO 261700
TAFSMF
TAF
KSMF 261730Z 2618/2718 34007KT P6SM FEW250
     FM262000 34011G17KT P6SM FEW250
     FM270200 31006KT P6SM SKC=



000
FTUS46 KSTO 261100
TAFMHR
TAF
KMHR 261120Z 2612/2712 VRB03KT P6SM SKC
     FM261700 32010G18KT P6SM FEW250
     FM270200 30005KT P6SM SKC
      AMD NOT SKED=



000
FTUS46 KSTO 261100
TAFSCK
TAF
KSCK 261120Z 2612/2712 28006KT P6SM SKC
     FM261700 32014G22KT P6SM FEW250
     FM270300 29008KT P6SM SKC=



000
FTUS46 KSTO 261100
TAFRDD
TAF
KRDD 261120Z 2612/2712 35008KT P6SM SCT250=



000
FTUS46 KSTO 261100
TAFSAC
TAF
KSAC 261120Z 2612/2712 VRB03KT P6SM SKC
     FM261700 33010G17KT P6SM FEW250
     FM270200 30005KT P6SM SKC=



000
FTUS46 KSTO 261100
TAFSMF
TAF
KSMF 261120Z 2612/2712 VRB03KT P6SM SKC
     FM261700 34011G18KT P6SM FEW250
     FM270200 31006KT P6SM SKC=



000
FTUS46 KSTO 261100
TAFRBL
TAF
KRBL 261120Z 2612/2712 34007KT P6SM FEW250
     FM262000 35011G17KT P6SM SCT250
     FM270100 34009KT P6SM SKC=



000
FTUS46 KSTO 260600 RRA
TAFSCK
TAF
KSCK 260651Z 2607/2706 26010KT P6SM SCT250
     FM261800 32018KT P6SM SCT250
     FM270400 27010KT P6SM SKC=



000
FTUS46 KSTO 260600 RRA
TAFMHR
TAF
KMHR 260651Z 2607/2706 18006KT P6SM SCT250
     FM260800 VRB04KT P6SM SKC
     FM261800 31014KT P6SM SCT250
     FM270300 30005KT P6SM SKC
      AMD NOT SKED=



000
FTUS46 KSTO 260600 RRA
TAFRDD
TAF
KRDD 260651Z 2607/2706 30006KT P6SM SCT100 BKN250
     FM261700 35010KT P6SM SCT250=



000
FTUS46 KSTO 260600 RRA
TAFSAC
TAF
KSAC 260651Z 2607/2706 17005KT P6SM SCT250
     FM261800 32015KT P6SM SCT250
     FM270300 30004KT P6SM SKC=



000
FTUS46 KSTO 260600 RRA
TAFRBL
TAF
KRBL 260651Z 2607/2706 32008KT P6SM SCT100 BKN250
     FM261700 35015KT P6SM SCT250
     FM270300 31006KT P6SM SKC=



000
FTUS46 KSTO 260600 RRA
TAFSMF
TAF
KSMF 260651Z 2607/2706 16007KT P6SM SCT250
     FM261800 32014KT P6SM SCT250
     FM270300 31005KT P6SM SKC=



000
FTUS46 KSTO 260600 RRA
TAFSAC
TAF
KSAC 260651Z 2607/2706 17005KT P6SM SCT250
     FM261800 32015KT P6SM SCT250
     FM270300 30004KT P6SM SKC=



000
FTUS46 KSTO 260600 RRA
TAFMHR
TAF
KMHR 260651Z 2607/2706 18006KT P6SM SCT250
     FM260800 VRB04KT P6SM SKC
     FM261800 31014KT P6SM SCT250
     FM270300 30005KT P6SM SKC
      AMD NOT SKED=



000
FTUS46 KSTO 260600 RRA
TAFSCK
TAF
KSCK 260651Z 2607/2706 26010KT P6SM SCT250
     FM261800 32018KT P6SM SCT250
     FM270400 27010KT P6SM SKC=



000
FTUS46 KSTO 260600 RRA
TAFRDD
TAF
KRDD 260651Z 2607/2706 30006KT P6SM SCT100 BKN250
     FM261700 35010KT P6SM SCT250=



000
FTUS46 KSTO 260600 RRA
TAFRBL
TAF
KRBL 260651Z 2607/2706 32008KT P6SM SCT100 BKN250
     FM261700 35015KT P6SM SCT250
     FM270300 31006KT P6SM SKC=



000
FTUS46 KSTO 260600 RRA
TAFSMF
TAF
KSMF 260651Z 2607/2706 16007KT P6SM SCT250
     FM261800 32014KT P6SM SCT250
     FM270300 31005KT P6SM SKC=



000
FTUS46 KSTO 252300
TAFSCK
TAF
KSCK 252332Z 2600/2624 28012KT P6SM SCT040 SCT250
     FM260400 26010KT P6SM SCT250
     FM261800 32018KT P6SM SCT250=



000
FTUS46 KSTO 252300
TAFSAC
TAF
KSAC 252332Z 2600/2624 21008KT P6SM SCT050 SCT250
     FM260200 17005KT P6SM SCT250
     FM261800 32015KT P6SM SCT250=



000
FTUS46 KSTO 252300
TAFRDD
TAF
KRDD 252332Z 2600/2624 20006KT P6SM SCT050 SCT250
     FM260500 30006KT P6SM SCT100 SCT250
     FM261700 35010KT P6SM SCT250=



000
FTUS46 KSTO 252300
TAFMHR
TAF
KMHR 252332Z 2600/2624 24006KT P6SM SCT050 SCT250
     FM260300 18006KT P6SM SCT250
     FM261800 31014KT P6SM SCT250
      AMD NOT SKED=



000
FTUS46 KSTO 252300
TAFRBL
TAF
KRBL 252332Z 2600/2624 15007KT P6SM SCT250
     FM260500 32008KT P6SM SCT100 SCT250
     FM261700 35015KT P6SM SCT250=



000
FTUS46 KSTO 252300
TAFSMF
TAF
KSMF 252332Z 2600/2624 30008KT P6SM SCT050 SCT250
     FM260300 16007KT P6SM SCT250
     FM261800 32014KT P6SM SCT250=



000
FTUS46 KSTO 252000 AAA
TAFMHR
TAF AMD
KMHR 252053Z 2521/2618 33009KT P6SM VCSH SCT035
     FM260000 28008KT P6SM SCT035
     FM260300 VRB05KT P6SM SCT050=



000
FTUS46 KSTO 251800 AAA
TAFSMF
TAF AMD
KSMF 251821Z 2518/2618 32005KT P6SM SCT015
     FM252000 31007KT P6SM VCSH SCT025
     FM252300 30008KT P6SM SCT035
     FM260200 21007KT P6SM SCT050=



000
FTUS46 KSTO 251800 AAA
TAFSMF
TAF AMD
KSMF 251821Z 2518/2618 32005KT P6SM SCT015
     FM252000 31007KT P6SM VCSH SCT025
     FM252300 30008KT P6SM SCT035
     FM260200 21007KT P6SM SCT050=



000
FTUS46 KSTO 251800 AAA
TAFSAC
TAF AMD
KSAC 251820Z 2518/2618 30005KT P6SM SCT020
     FM252000 28008KT P6SM VCSH SCT025
     FM252300 27007KT P6SM SCT035
     FM260200 21007KT P6SM FEW050=



000
FTUS46 KSTO 251800 AAA
TAFSAC
TAF AMD
KSAC 251820Z 2518/2618 30005KT P6SM SCT020
     FM252000 28008KT P6SM VCSH SCT025
     FM252300 27007KT P6SM SCT035
     FM260200 21007KT P6SM FEW050=



000
FTUS46 KSTO 251700
TAFMHR
TAF
KMHR 251738Z 2518/2618 33005KT P6SM BKN020
     FM252000 31008KT P6SM VCSH BKN025
     FM260000 28008KT P6SM BKN035
     FM260300 VRB05KT P6SM SCT050=



000
FTUS46 KSTO 251700
TAFMHR
TAF
KMHR 251738Z 2518/2618 33005KT P6SM BKN020
     FM252000 31008KT P6SM VCSH BKN025
     FM260000 28008KT P6SM BKN035
     FM260300 VRB05KT P6SM SCT050=



000
FTUS46 KSTO 251700
TAFSCK
TAF
KSCK 251738Z 2518/2618 26008KT P6SM BKN025
     FM252000 28010KT P6SM VCSH BKN035
     FM260300 26010KT P6SM SCT050=



000
FTUS46 KSTO 251700
TAFSMF
TAF
KSMF 251738Z 2518/2618 32005KT P6SM BKN015
     FM252000 31007KT P6SM VCSH BKN025
     FM252300 30008KT P6SM BKN035
     FM260200 21007KT P6SM SCT050=



000
FTUS46 KSTO 251700
TAFRBL
TAF
KRBL 251738Z 2518/2618 35008KT P6SM FEW030
     FM252200 20009KT P6SM SCT250
     FM260200 33008KT P6SM SCT100
     FM261700 35015G20KT P6SM SKC=



000
FTUS46 KSTO 251700
TAFSAC
TAF
KSAC 251738Z 2518/2618 34006KT P6SM BKN018
     FM252000 28008KT P6SM VCSH BKN025
     FM252300 27007KT P6SM BKN035
     FM260200 21007KT P6SM SCT050=



000
FTUS46 KSTO 251700
TAFRDD
TAF
KRDD 251738Z 2518/2618 36008KT P6SM FEW030
     FM252200 20009KT P6SM SCT250
     FM260200 VRB04KT P6SM SCT100
     FM261700 35010KT P6SM SKC=



000
FTUS46 KSTO 251700
TAFSAC
TAF
KSAC 251726Z 2518/2618 30008KT P6SM VCSH FEW006 SCT025
      TEMPO 2518/2520 BKN006
     FM252100 23008KT P6SM BKN025
     FM260300 VRB04KT P6SM SCT250=



000
FTUS46 KSTO 251700
TAFSCK
TAF
KSCK 251726Z 2518/2618 26010KT P6SM VCSH BKN025
     FM252100 27012KT P6SM BKN025
     FM260300 25009KT P6SM SCT250=



000
FTUS46 KSTO 251700
TAFSMF
TAF
KSMF 251726Z 2518/2618 30008KT P6SM VCSH FEW006 SCT025
      TEMPO 2518/2520 BKN006
     FM252100 20008KT P6SM BKN025
     FM260300 18008KT P6SM SCT250=



000
FTUS46 KSTO 251700
TAFRDD
TAF
KRDD 251726Z 2518/2618 36008KT P6SM FEW025 SCT100
     FM252200 20009KT P6SM BKN025
     FM260200 33004KT P6SM SCT100=



000
FTUS46 KSTO 251700
TAFMHR
TAF
KMHR 251726Z 2518/2618 30007KT P6SM VCSH FEW006 SCT025
      TEMPO 2518/2520 BKN006
     FM252100 22007KT P6SM BKN025
     FM260300 VRB04KT P6SM SCT250=



000
FTUS46 KSTO 251700
TAFRBL
TAF
KRBL 251726Z 2518/2618 34010KT P6SM FEW025 SCT100
     FM252200 34008KT P6SM BKN025
     FM260200 34008KT P6SM SCT100=



000
FTUS46 KSTO 251700
TAFSCK
TAF
KSCK 251726Z 2518/2618 26010KT P6SM VCSH BKN025
     FM252100 27012KT P6SM BKN025
     FM260300 25009KT P6SM SCT250=



000
FTUS46 KSTO 251700
TAFSMF
TAF
KSMF 251726Z 2518/2618 30008KT P6SM VCSH FEW006 SCT025
      TEMPO 2518/2520 BKN006
     FM252100 20008KT P6SM BKN025
     FM260300 18008KT P6SM SCT250=



000
FTUS46 KSTO 251700
TAFSAC
TAF
KSAC 251726Z 2518/2618 30008KT P6SM VCSH FEW006 SCT025
      TEMPO 2518/2520 BKN006
     FM252100 23008KT P6SM BKN025
     FM260300 VRB04KT P6SM SCT250=



000
FTUS46 KSTO 251700
TAFRDD
TAF
KRDD 251726Z 2518/2618 36008KT P6SM FEW025 SCT100
     FM252200 20009KT P6SM BKN025
     FM260200 33004KT P6SM SCT100=



000
FTUS46 KSTO 251700
TAFMHR
TAF
KMHR 251726Z 2518/2618 30007KT P6SM VCSH FEW006 SCT025
      TEMPO 2518/2520 BKN006
     FM252100 22007KT P6SM BKN025
     FM260300 VRB04KT P6SM SCT250=



000
FTUS46 KSTO 251700
TAFRBL
TAF
KRBL 251726Z 2518/2618 34010KT P6SM FEW025 SCT100
     FM252200 34008KT P6SM BKN025
     FM260200 34008KT P6SM SCT100=



000
FTUS46 KSTO 251700 AAC
TAFSMF
TAF AMD
KSMF 251705Z 2517/2612 24007KT P6SM OVC006
     FM251800 18010KT P6SM VCSH BKN015
     FM252000 30008KT P6SM BKN035=



000
FTUS46 KSTO 251700 AAC
TAFSMF
TAF AMD
KSMF 251705Z 2517/2612 24007KT P6SM OVC006
     FM251800 18010KT P6SM VCSH BKN015
     FM252000 30008KT P6SM BKN035=



000
FTUS46 KSTO 251600 AAB
TAFRBL
TAF AMD
KRBL 251607Z 2516/2612 VRB03KT P6SM SCT013
      TEMPO 2516/2517 BKN013
     FM251700 33008KT P6SM FEW030 SCT100
     FM252200 20009KT P6SM BKN040
     FM260200 VRB04KT P6SM SCT100=



000
FTUS46 KSTO 251600 AAB
TAFSMF
TAF AMD
KSMF 251606Z 2516/2612 24007KT P6SM OVC003
     FM251730 18010KT P6SM VCSH BKN015
     FM252000 30008KT P6SM BKN035=



000
FTUS46 KSTO 251600 AAB
TAFSMF
TAF AMD
KSMF 251606Z 2516/2612 24007KT P6SM OVC003
     FM251730 18010KT P6SM VCSH BKN015
     FM252000 30008KT P6SM BKN035=



000
FTUS46 KSTO 251300 AAA
TAFRDD
TAF AMD
KRDD 251357Z 2514/2612 VRB03KT P6SM FEW007
     FM251700 33008KT P6SM FEW030 SCT100
     FM252200 20009KT P6SM BKN040
     FM260200 VRB04KT P6SM SCT100=



000
FTUS46 KSTO 251300 AAA
TAFRBL
TAF AMD
KRBL 251305Z 2513/2612 VRB03KT P6SM SCT015
      TEMPO 2513/2515 BKN010
     FM251700 33008KT P6SM FEW030 SCT100
     FM252200 20009KT P6SM BKN040
     FM260200 VRB04KT P6SM SCT100=



000
FTUS46 KSTO 251300 AAA
TAFRBL
TAF AMD
KRBL 251305Z 2513/2612 VRB03KT P6SM SCT015
      TEMPO 2513/2515 BKN010
     FM251700 33008KT P6SM FEW030 SCT100
     FM252200 20009KT P6SM BKN040
     FM260200 VRB04KT P6SM SCT100=



000
FTUS46 KSTO 251300 AAA
TAFSCK
TAF AMD
KSCK 251303Z 2513/2612 VRB03KT P6SM SCT040
     FM251600 25010KT P6SM VCSH BKN040
     FM252100 28009KT P6SM BKN060=



000
FTUS46 KSTO 251300 AAA
TAFSCK
TAF AMD
KSCK 251303Z 2513/2612 VRB03KT P6SM SCT040
     FM251600 25010KT P6SM VCSH BKN040
     FM252100 28009KT P6SM BKN060=



000
FTUS46 KSTO 251300 AAA
TAFMHR
TAF AMD
KMHR 251302Z 2513/2612 22006KT P6SM SCT070
     FM251500 17010KT P6SM VCSH BKN040
     FM252000 31008KT P6SM BKN060=



000
FTUS46 KSTO 251300 AAA
TAFMHR
TAF AMD
KMHR 251302Z 2513/2612 22006KT P6SM SCT070
     FM251500 17010KT P6SM VCSH BKN040
     FM252000 31008KT P6SM BKN060=



000
FTUS46 KSTO 251300 AAA
TAFSAC
TAF AMD
KSAC 251301Z 2513/2612 24006KT P6SM SCT070
     FM251500 20010KT P6SM VCSH BKN040
     FM252000 28008KT P6SM BKN060=



000
FTUS46 KSTO 251300 AAA
TAFSAC
TAF AMD
KSAC 251301Z 2513/2612 24006KT P6SM SCT070
     FM251500 20010KT P6SM VCSH BKN040
     FM252000 28008KT P6SM BKN060=



000
FTUS46 KSTO 251300 AAA
TAFSMF
TAF AMD
KSMF 251300Z 2513/2612 24007KT P6SM SCT070
     FM251500 18010KT P6SM VCSH BKN040
     FM252000 30008KT P6SM BKN060=



000
FTUS46 KSTO 251100
TAFSCK
TAF
KSCK 251130Z 2512/2612 VRB04KT P6SM BKN015 OVC040
      TEMPO 2512/2516 BKN007
     FM251600 25010KT P6SM VCSH BKN012 OVC040
     FM252100 28009KT P6SM SCT020 BKN050=



000
FTUS46 KSTO 251100
TAFMHR
TAF
KMHR 251130Z 2512/2612 20010KT P6SM BKN015 OVC040
      TEMPO 2512/2515 4SM BR BKN006
     FM251500 17010KT P6SM VCSH BKN012 OVC040
     FM252000 31008KT P6SM SCT015 BKN050=



000
FTUS46 KSTO 251100
TAFSMF
TAF
KSMF 251130Z 2512/2612 20010KT P6SM BKN015 OVC040
      TEMPO 2512/2515 BKN006
     FM251500 18010KT P6SM VCSH BKN012 OVC040
     FM252000 30008KT P6SM SCT015 BKN050=



000
FTUS46 KSTO 251100
TAFSAC
TAF
KSAC 251130Z 2512/2612 22010G17KT P6SM BKN015 OVC040
      TEMPO 2512/2515 BKN006
     FM251500 20010KT P6SM VCSH BKN012 OVC040
     FM252000 28008KT P6SM SCT015 BKN050=



000
FTUS46 KSTO 251100
TAFRDD
TAF
KRDD 251130Z 2512/2612 VRB05KT P6SM OVC007
     FM251700 33008KT P6SM SCT020 SCT100
     FM252200 20009KT P6SM BKN040
     FM260200 VRB04KT P6SM SCT100=



000
FTUS46 KSTO 251100
TAFRBL
TAF
KRBL 251130Z 2512/2612 VRB05KT P6SM OVC007
     FM251700 33008KT P6SM SCT020 SCT100
     FM252200 20009KT P6SM BKN040
     FM260200 VRB04KT P6SM SCT100=



000
FTUS46 KSTO 251100
TAFRDD
TAF
KRDD 251130Z 2512/2612 VRB05KT P6SM OVC007
     FM251700 33008KT P6SM SCT020 SCT100
     FM252200 20009KT P6SM BKN040
     FM260200 VRB04KT P6SM SCT100=



000
FTUS46 KSTO 251100
TAFMHR
TAF
KMHR 251130Z 2512/2612 20010KT P6SM BKN015 OVC040
      TEMPO 2512/2515 4SM BR BKN006
     FM251500 17010KT P6SM VCSH BKN012 OVC040
     FM252000 31008KT P6SM SCT015 BKN050=



000
FTUS46 KSTO 251100
TAFSMF
TAF
KSMF 251130Z 2512/2612 20010KT P6SM BKN015 OVC040
      TEMPO 2512/2515 BKN006
     FM251500 18010KT P6SM VCSH BKN012 OVC040
     FM252000 30008KT P6SM SCT015 BKN050=



000
FTUS46 KSTO 251100
TAFRBL
TAF
KRBL 251130Z 2512/2612 VRB05KT P6SM OVC007
     FM251700 33008KT P6SM SCT020 SCT100
     FM252200 20009KT P6SM BKN040
     FM260200 VRB04KT P6SM SCT100=



000
FTUS46 KSTO 251100
TAFSAC
TAF
KSAC 251130Z 2512/2612 22010G17KT P6SM BKN015 OVC040
      TEMPO 2512/2515 BKN006
     FM251500 20010KT P6SM VCSH BKN012 OVC040
     FM252000 28008KT P6SM SCT015 BKN050=



000
FTUS46 KSTO 251100
TAFSCK
TAF
KSCK 251130Z 2512/2612 VRB04KT P6SM BKN015 OVC040
      TEMPO 2512/2516 BKN007
     FM251600 25010KT P6SM VCSH BKN012 OVC040
     FM252100 28009KT P6SM SCT020 BKN050=



000
FTUS46 KSTO 250500
TAFRDD
TAF
KRDD 250538Z 2506/2606 19008KT P6SM VCSH BKN080
      TEMPO 2507/2511 6SM -SHRA BKN040
     FM251700 19008KT P6SM SCT100=



000
FTUS46 KSTO 250500
TAFMHR
TAF
KMHR 250538Z 2506/2606 20008KT 6SM -RA OVC040
      TEMPO 2507/2511 3SM -RA OVC015
     FM251700 21008KT P6SM SCT060 BKN100=



000
FTUS46 KSTO 250500
TAFSMF
TAF
KSMF 250538Z 2506/2606 20011G18KT 6SM -RA OVC060
      TEMPO 2506/2510 3SM -RA OVC015
     FM251700 19009KT P6SM SCT060 BKN100=



000
FTUS46 KSTO 250500
TAFSAC
TAF
KSAC 250538Z 2506/2606 20010G17KT 6SM -RA OVC060
      TEMPO 2507/2511 3SM -RA OVC015
     FM251700 22008KT P6SM SCT060 BKN100=



000
FTUS46 KSTO 250500
TAFRBL
TAF
KRBL 250538Z 2506/2606 15011KT P6SM VCSH BKN080
      TEMPO 2506/2510 3SM -SHRA BKN030
     FM251700 16009KT P6SM SCT100=



000
FTUS46 KSTO 250500
TAFSCK
TAF
KSCK 250538Z 2506/2606 25011KT 6SM -RA OVC060
      TEMPO 2508/2512 3SM -RA SCT007 OVC012
     FM252000 28009KT P6SM SCT060 BKN100=



    US Dept of Commerce
    National Oceanic and Atmospheric Administration
    National Weather Service
    1325 East West Highway
    Silver Spring, MD 20910
    Page Author: NWS Internet Services Team
Disclaimer
Information Quality
Credits
Glossary
Privacy Policy
Freedom of Information Act (FOIA)
About Us
Career Opportunities